sensor_id;sensor_type;location;lat;lon;timestamp;P1;durP1;ratioP1;P2;durP2;ratioP2
28523;SDS011;15734;50.904;6.922;2023-07-30T00:01:16;5.45;;;3.00;;
28523;SDS011;15734;50.904;6.922;2023-07-30T00:03:42;4.63;;;2.83;;
28523;SDS011;15734;50.904;6.922;2023-07-30T00:06:07;6.07;;;2.72;;
28523;SDS011;15734;50.904;6.922;2023-07-30T00:08:33;6.63;;;3.10;;
28523;SDS011;15734;50.904;6.922;2023-07-30T00:10:58;3.70;;;2.65;;
28523;SDS011;15734;50.904;6.922;2023-07-30T00:13:24;4.95;;;2.70;;
28523;SDS011;15734;50.904;6.922;2023-07-30T00:15:50;5.40;;;3.10;;
28523;SDS011;15734;50.904;6.922;2023-07-30T00:18:16;9.75;;;3.28;;
28523;SDS011;15734;50.904;6.922;2023-07-30T00:20:42;6.57;;;2.85;;
28523;SDS011;15734;50.904;6.922;2023-07-30T00:23:08;4.75;;;2.80;;
28523;SDS011;15734;50.904;6.922;2023-07-30T00:25:33;11.00;;;2.92;;
28523;SDS011;15734;50.904;6.922;2023-07-30T00:27:59;4.25;;;3.42;;
28523;SDS011;15734;50.904;6.922;2023-07-30T00:30:24;7.32;;;3.20;;
28523;SDS011;15734;50.904;6.922;2023-07-30T00:32:50;10.65;;;3.38;;
28523;SDS011;15734;50.904;6.922;2023-07-30T00:35:15;9.07;;;3.70;;
28523;SDS011;15734;50.904;6.922;2023-07-30T00:37:41;9.43;;;3.80;;
28523;SDS011;15734;50.904;6.922;2023-07-30T00:40:07;6.88;;;3.05;;
28523;SDS011;15734;50.904;6.922;2023-07-30T00:42:33;6.80;;;3.30;;
28523;SDS011;15734;50.904;6.922;2023-07-30T00:44:58;13.73;;;4.25;;
28523;SDS011;15734;50.904;6.922;2023-07-30T00:47:24;9.35;;;4.22;;
28523;SDS011;15734;50.904;6.922;2023-07-30T00:49:50;7.35;;;3.97;;
28523;SDS011;15734;50.904;6.922;2023-07-30T00:52:16;6.82;;;3.75;;
28523;SDS011;15734;50.904;6.922;2023-07-30T00:54:43;9.57;;;4.60;;
28523;SDS011;15734;50.904;6.922;2023-07-30T00:57:09;18.00;;;6.18;;
28523;SDS011;15734;50.904;6.922;2023-07-30T00:59:35;19.83;;;11.30;;
28523;SDS011;15734;50.904;6.922;2023-07-30T01:02:02;22.55;;;13.52;;
28523;SDS011;15734;50.904;6.922;2023-07-30T01:04:28;20.13;;;9.82;;
28523;SDS011;15734;50.904;6.922;2023-07-30T01:06:54;15.38;;;8.85;;
28523;SDS011;15734;50.904;6.922;2023-07-30T01:09:20;20.88;;;8.82;;
28523;SDS011;15734;50.904;6.922;2023-07-30T01:11:46;14.77;;;7.78;;
28523;SDS011;15734;50.904;6.922;2023-07-30T01:14:12;10.98;;;7.72;;
28523;SDS011;15734;50.904;6.922;2023-07-30T01:16:39;12.23;;;7.40;;
28523;SDS011;15734;50.904;6.922;2023-07-30T01:19:05;9.88;;;6.07;;
28523;SDS011;15734;50.904;6.922;2023-07-30T01:21:34;19.92;;;7.40;;
28523;SDS011;15734;50.904;6.922;2023-07-30T01:24:01;10.27;;;7.15;;
28523;SDS011;15734;50.904;6.922;2023-07-30T01:26:28;13.38;;;7.75;;
28523;SDS011;15734;50.904;6.922;2023-07-30T01:29:03;14.18;;;7.97;;
28523;SDS011;15734;50.904;6.922;2023-07-30T01:31:35;11.32;;;6.82;;
28523;SDS011;15734;50.904;6.922;2023-07-30T01:34:02;12.68;;;6.18;;
28523;SDS011;15734;50.904;6.922;2023-07-30T01:36:29;10.18;;;6.47;;
28523;SDS011;15734;50.904;6.922;2023-07-30T01:38:56;9.98;;;7.35;;
28523;SDS011;15734;50.904;6.922;2023-07-30T01:41:23;14.52;;;6.22;;
28523;SDS011;15734;50.904;6.922;2023-07-30T01:43:49;10.70;;;7.75;;
28523;SDS011;15734;50.904;6.922;2023-07-30T01:46:15;12.68;;;4.78;;
28523;SDS011;15734;50.904;6.922;2023-07-30T01:48:40;11.60;;;4.75;;
28523;SDS011;15734;50.904;6.922;2023-07-30T01:51:06;9.23;;;3.97;;
28523;SDS011;15734;50.904;6.922;2023-07-30T01:53:31;6.80;;;4.15;;
28523;SDS011;15734;50.904;6.922;2023-07-30T01:55:57;6.18;;;3.53;;
28523;SDS011;15734;50.904;6.922;2023-07-30T01:58:22;6.45;;;3.75;;
28523;SDS011;15734;50.904;6.922;2023-07-30T02:00:48;10.82;;;3.47;;
28523;SDS011;15734;50.904;6.922;2023-07-30T02:03:13;10.52;;;4.05;;
28523;SDS011;15734;50.904;6.922;2023-07-30T02:05:39;9.70;;;3.97;;
28523;SDS011;15734;50.904;6.922;2023-07-30T02:08:04;9.25;;;4.30;;
28523;SDS011;15734;50.904;6.922;2023-07-30T02:10:30;15.68;;;3.05;;
28523;SDS011;15734;50.904;6.922;2023-07-30T02:12:55;8.30;;;2.70;;
28523;SDS011;15734;50.904;6.922;2023-07-30T02:15:21;10.30;;;2.88;;
28523;SDS011;15734;50.904;6.922;2023-07-30T02:17:47;7.78;;;2.53;;
28523;SDS011;15734;50.904;6.922;2023-07-30T02:20:12;6.47;;;2.70;;
28523;SDS011;15734;50.904;6.922;2023-07-30T02:22:38;15.88;;;3.20;;
28523;SDS011;15734;50.904;6.922;2023-07-30T02:25:03;14.70;;;3.05;;
28523;SDS011;15734;50.904;6.922;2023-07-30T02:27:29;8.68;;;2.65;;
28523;SDS011;15734;50.904;6.922;2023-07-30T02:29:55;7.63;;;2.50;;
28523;SDS011;15734;50.904;6.922;2023-07-30T02:32:20;10.70;;;3.13;;
28523;SDS011;15734;50.904;6.922;2023-07-30T02:34:46;7.63;;;3.22;;
28523;SDS011;15734;50.904;6.922;2023-07-30T02:37:11;11.57;;;2.60;;
28523;SDS011;15734;50.904;6.922;2023-07-30T02:39:38;17.20;;;3.13;;
28523;SDS011;15734;50.904;6.922;2023-07-30T02:42:03;11.13;;;2.63;;
28523;SDS011;15734;50.904;6.922;2023-07-30T02:44:29;8.55;;;3.17;;
28523;SDS011;15734;50.904;6.922;2023-07-30T02:46:54;13.05;;;3.47;;
28523;SDS011;15734;50.904;6.922;2023-07-30T02:49:20;10.07;;;3.28;;
28523;SDS011;15734;50.904;6.922;2023-07-30T02:51:45;8.80;;;2.60;;
28523;SDS011;15734;50.904;6.922;2023-07-30T02:54:13;4.10;;;2.47;;
28523;SDS011;15734;50.904;6.922;2023-07-30T02:56:41;9.25;;;3.10;;
28523;SDS011;15734;50.904;6.922;2023-07-30T02:59:06;9.43;;;2.90;;
28523;SDS011;15734;50.904;6.922;2023-07-30T03:01:32;13.50;;;3.30;;
28523;SDS011;15734;50.904;6.922;2023-07-30T03:03:57;10.27;;;2.78;;
28523;SDS011;15734;50.904;6.922;2023-07-30T03:06:23;12.98;;;2.95;;
28523;SDS011;15734;50.904;6.922;2023-07-30T03:08:48;7.43;;;3.17;;
28523;SDS011;15734;50.904;6.922;2023-07-30T03:11:14;5.45;;;2.25;;
28523;SDS011;15734;50.904;6.922;2023-07-30T03:13:39;10.65;;;2.75;;
28523;SDS011;15734;50.904;6.922;2023-07-30T03:16:05;6.88;;;2.78;;
28523;SDS011;15734;50.904;6.922;2023-07-30T03:18:30;15.30;;;3.50;;
28523;SDS011;15734;50.904;6.922;2023-07-30T03:20:59;11.00;;;3.13;;
28523;SDS011;15734;50.904;6.922;2023-07-30T03:23:26;11.93;;;2.83;;
28523;SDS011;15734;50.904;6.922;2023-07-30T03:25:52;8.02;;;2.78;;
28523;SDS011;15734;50.904;6.922;2023-07-30T03:28:17;10.32;;;3.17;;
28523;SDS011;15734;50.904;6.922;2023-07-30T03:30:43;13.80;;;2.63;;
28523;SDS011;15734;50.904;6.922;2023-07-30T03:33:08;9.75;;;2.60;;
28523;SDS011;15734;50.904;6.922;2023-07-30T03:35:34;7.13;;;2.45;;
28523;SDS011;15734;50.904;6.922;2023-07-30T03:37:59;9.23;;;3.10;;
28523;SDS011;15734;50.904;6.922;2023-07-30T03:40:25;11.63;;;3.38;;
28523;SDS011;15734;50.904;6.922;2023-07-30T03:42:50;8.82;;;2.63;;
28523;SDS011;15734;50.904;6.922;2023-07-30T03:45:16;10.48;;;2.75;;
28523;SDS011;15734;50.904;6.922;2023-07-30T03:47:42;9.32;;;2.53;;
28523;SDS011;15734;50.904;6.922;2023-07-30T03:50:07;10.00;;;3.78;;
28523;SDS011;15734;50.904;6.922;2023-07-30T03:52:33;13.90;;;2.95;;
28523;SDS011;15734;50.904;6.922;2023-07-30T03:54:58;12.95;;;3.13;;
28523;SDS011;15734;50.904;6.922;2023-07-30T03:57:24;14.95;;;2.85;;
28523;SDS011;15734;50.904;6.922;2023-07-30T03:59:49;8.32;;;3.03;;
28523;SDS011;15734;50.904;6.922;2023-07-30T04:02:15;10.70;;;3.30;;
28523;SDS011;15734;50.904;6.922;2023-07-30T04:04:41;11.40;;;3.25;;
28523;SDS011;15734;50.904;6.922;2023-07-30T04:07:09;11.35;;;4.28;;
28523;SDS011;15734;50.904;6.922;2023-07-30T04:09:35;12.00;;;3.15;;
28523;SDS011;15734;50.904;6.922;2023-07-30T04:12:01;10.15;;;2.75;;
28523;SDS011;15734;50.904;6.922;2023-07-30T04:14:26;12.20;;;3.35;;
28523;SDS011;15734;50.904;6.922;2023-07-30T04:16:52;14.63;;;2.83;;
28523;SDS011;15734;50.904;6.922;2023-07-30T04:19:17;8.65;;;3.25;;
28523;SDS011;15734;50.904;6.922;2023-07-30T04:21:43;9.00;;;2.67;;
28523;SDS011;15734;50.904;6.922;2023-07-30T04:24:08;11.85;;;3.42;;
28523;SDS011;15734;50.904;6.922;2023-07-30T04:26:34;12.35;;;4.10;;
28523;SDS011;15734;50.904;6.922;2023-07-30T04:28:59;8.88;;;2.50;;
28523;SDS011;15734;50.904;6.922;2023-07-30T04:31:25;7.80;;;3.08;;
28523;SDS011;15734;50.904;6.922;2023-07-30T04:33:51;19.90;;;3.55;;
28523;SDS011;15734;50.904;6.922;2023-07-30T04:36:16;9.88;;;2.83;;
28523;SDS011;15734;50.904;6.922;2023-07-30T04:38:42;11.70;;;2.72;;
28523;SDS011;15734;50.904;6.922;2023-07-30T04:41:07;6.78;;;2.58;;
28523;SDS011;15734;50.904;6.922;2023-07-30T04:43:33;8.82;;;2.45;;
28523;SDS011;15734;50.904;6.922;2023-07-30T04:45:58;9.38;;;2.45;;
28523;SDS011;15734;50.904;6.922;2023-07-30T04:48:24;12.10;;;2.65;;
28523;SDS011;15734;50.904;6.922;2023-07-30T04:50:49;7.10;;;2.22;;
28523;SDS011;15734;50.904;6.922;2023-07-30T04:53:15;7.70;;;2.05;;
28523;SDS011;15734;50.904;6.922;2023-07-30T04:55:42;12.35;;;2.38;;
28523;SDS011;15734;50.904;6.922;2023-07-30T04:58:07;9.25;;;2.58;;
28523;SDS011;15734;50.904;6.922;2023-07-30T05:00:33;12.38;;;2.33;;
28523;SDS011;15734;50.904;6.922;2023-07-30T05:02:58;10.38;;;2.10;;
28523;SDS011;15734;50.904;6.922;2023-07-30T05:05:24;7.15;;;2.47;;
28523;SDS011;15734;50.904;6.922;2023-07-30T05:07:49;13.90;;;2.33;;
28523;SDS011;15734;50.904;6.922;2023-07-30T05:10:15;10.27;;;2.28;;
28523;SDS011;15734;50.904;6.922;2023-07-30T05:12:41;8.57;;;2.40;;
28523;SDS011;15734;50.904;6.922;2023-07-30T05:15:07;12.00;;;2.00;;
28523;SDS011;15734;50.904;6.922;2023-07-30T05:17:32;7.72;;;2.63;;
28523;SDS011;15734;50.904;6.922;2023-07-30T05:19:58;9.95;;;1.92;;
28523;SDS011;15734;50.904;6.922;2023-07-30T05:22:24;11.70;;;2.35;;
28523;SDS011;15734;50.904;6.922;2023-07-30T05:24:50;10.43;;;2.10;;
28523;SDS011;15734;50.904;6.922;2023-07-30T05:27:16;7.28;;;1.77;;
28523;SDS011;15734;50.904;6.922;2023-07-30T05:29:41;7.13;;;2.05;;
28523;SDS011;15734;50.904;6.922;2023-07-30T05:32:07;10.40;;;2.08;;
28523;SDS011;15734;50.904;6.922;2023-07-30T05:34:34;11.45;;;2.47;;
28523;SDS011;15734;50.904;6.922;2023-07-30T05:36:59;7.47;;;1.77;;
28523;SDS011;15734;50.904;6.922;2023-07-30T05:39:25;12.05;;;1.95;;
28523;SDS011;15734;50.904;6.922;2023-07-30T05:41:51;10.32;;;2.45;;
28523;SDS011;15734;50.904;6.922;2023-07-30T05:44:16;5.53;;;1.80;;
28523;SDS011;15734;50.904;6.922;2023-07-30T05:46:42;4.65;;;1.50;;
28523;SDS011;15734;50.904;6.922;2023-07-30T05:49:08;9.52;;;2.17;;
28523;SDS011;15734;50.904;6.922;2023-07-30T05:51:33;5.25;;;1.73;;
28523;SDS011;15734;50.904;6.922;2023-07-30T05:53:59;11.95;;;2.38;;
28523;SDS011;15734;50.904;6.922;2023-07-30T05:56:24;10.55;;;2.08;;
28523;SDS011;15734;50.904;6.922;2023-07-30T05:58:50;10.07;;;2.13;;
28523;SDS011;15734;50.904;6.922;2023-07-30T06:01:16;10.00;;;1.90;;
28523;SDS011;15734;50.904;6.922;2023-07-30T06:03:42;5.45;;;1.75;;
28523;SDS011;15734;50.904;6.922;2023-07-30T06:06:07;8.00;;;1.67;;
28523;SDS011;15734;50.904;6.922;2023-07-30T06:08:33;9.98;;;1.90;;
28523;SDS011;15734;50.904;6.922;2023-07-30T06:11:02;9.02;;;2.88;;
28523;SDS011;15734;50.904;6.922;2023-07-30T06:13:28;10.88;;;2.00;;
28523;SDS011;15734;50.904;6.922;2023-07-30T06:15:54;5.22;;;1.50;;
28523;SDS011;15734;50.904;6.922;2023-07-30T06:18:20;5.20;;;1.58;;
28523;SDS011;15734;50.904;6.922;2023-07-30T06:20:46;8.70;;;1.70;;
28523;SDS011;15734;50.904;6.922;2023-07-30T06:23:11;9.43;;;2.05;;
28523;SDS011;15734;50.904;6.922;2023-07-30T06:25:37;6.50;;;1.80;;
28523;SDS011;15734;50.904;6.922;2023-07-30T06:28:02;9.23;;;2.20;;
28523;SDS011;15734;50.904;6.922;2023-07-30T06:30:29;6.70;;;1.92;;
28523;SDS011;15734;50.904;6.922;2023-07-30T06:32:54;16.13;;;2.80;;
28523;SDS011;15734;50.904;6.922;2023-07-30T06:35:20;5.68;;;1.60;;
28523;SDS011;15734;50.904;6.922;2023-07-30T06:37:45;4.03;;;1.90;;
28523;SDS011;15734;50.904;6.922;2023-07-30T06:40:11;8.45;;;1.92;;
28523;SDS011;15734;50.904;6.922;2023-07-30T06:42:37;3.40;;;1.50;;
28523;SDS011;15734;50.904;6.922;2023-07-30T06:45:02;6.28;;;1.40;;
28523;SDS011;15734;50.904;6.922;2023-07-30T06:47:28;8.18;;;1.75;;
28523;SDS011;15734;50.904;6.922;2023-07-30T06:49:54;8.23;;;1.88;;
28523;SDS011;15734;50.904;6.922;2023-07-30T06:52:19;10.43;;;1.40;;
28523;SDS011;15734;50.904;6.922;2023-07-30T06:54:45;13.18;;;1.65;;
28523;SDS011;15734;50.904;6.922;2023-07-30T06:57:11;4.65;;;2.33;;
28523;SDS011;15734;50.904;6.922;2023-07-30T06:59:36;6.97;;;1.25;;
28523;SDS011;15734;50.904;6.922;2023-07-30T07:02:02;7.22;;;1.20;;
28523;SDS011;15734;50.904;6.922;2023-07-30T07:04:30;3.75;;;1.70;;
28523;SDS011;15734;50.904;6.922;2023-07-30T07:06:55;3.55;;;1.15;;
28523;SDS011;15734;50.904;6.922;2023-07-30T07:09:21;6.65;;;1.40;;
28523;SDS011;15734;50.904;6.922;2023-07-30T07:11:47;4.50;;;1.25;;
28523;SDS011;15734;50.904;6.922;2023-07-30T07:14:12;5.47;;;1.05;;
28523;SDS011;15734;50.904;6.922;2023-07-30T07:16:38;7.72;;;1.38;;
28523;SDS011;15734;50.904;6.922;2023-07-30T07:19:03;7.38;;;1.23;;
28523;SDS011;15734;50.904;6.922;2023-07-30T07:21:30;5.75;;;1.38;;
28523;SDS011;15734;50.904;6.922;2023-07-30T07:23:55;6.72;;;1.30;;
28523;SDS011;15734;50.904;6.922;2023-07-30T07:26:21;6.20;;;1.15;;
28523;SDS011;15734;50.904;6.922;2023-07-30T07:28:46;5.85;;;1.35;;
28523;SDS011;15734;50.904;6.922;2023-07-30T07:31:12;6.38;;;1.42;;
28523;SDS011;15734;50.904;6.922;2023-07-30T07:33:37;7.65;;;1.48;;
28523;SDS011;15734;50.904;6.922;2023-07-30T07:36:03;8.43;;;1.63;;
28523;SDS011;15734;50.904;6.922;2023-07-30T07:38:30;12.57;;;3.33;;
28523;SDS011;15734;50.904;6.922;2023-07-30T07:40:57;7.97;;;1.60;;
28523;SDS011;15734;50.904;6.922;2023-07-30T07:43:22;13.55;;;1.80;;
28523;SDS011;15734;50.904;6.922;2023-07-30T07:45:48;10.07;;;2.45;;
28523;SDS011;15734;50.904;6.922;2023-07-30T07:48:13;6.05;;;1.80;;
28523;SDS011;15734;50.904;6.922;2023-07-30T07:50:39;11.70;;;1.88;;
28523;SDS011;15734;50.904;6.922;2023-07-30T07:53:04;10.90;;;1.92;;
28523;SDS011;15734;50.904;6.922;2023-07-30T07:55:30;9.73;;;2.35;;
28523;SDS011;15734;50.904;6.922;2023-07-30T07:57:55;6.40;;;1.50;;
28523;SDS011;15734;50.904;6.922;2023-07-30T08:00:21;13.52;;;2.22;;
28523;SDS011;15734;50.904;6.922;2023-07-30T08:02:47;15.55;;;2.25;;
28523;SDS011;15734;50.904;6.922;2023-07-30T08:05:13;10.88;;;2.38;;
28523;SDS011;15734;50.904;6.922;2023-07-30T08:07:38;15.82;;;2.40;;
28523;SDS011;15734;50.904;6.922;2023-07-30T08:10:04;10.82;;;2.25;;
28523;SDS011;15734;50.904;6.922;2023-07-30T08:12:33;11.25;;;1.75;;
28523;SDS011;15734;50.904;6.922;2023-07-30T08:14:59;14.10;;;2.28;;
28523;SDS011;15734;50.904;6.922;2023-07-30T08:17:25;11.82;;;2.45;;
28523;SDS011;15734;50.904;6.922;2023-07-30T08:19:50;11.55;;;2.10;;
28523;SDS011;15734;50.904;6.922;2023-07-30T08:22:16;9.50;;;2.10;;
28523;SDS011;15734;50.904;6.922;2023-07-30T08:24:41;12.48;;;2.38;;
28523;SDS011;15734;50.904;6.922;2023-07-30T08:27:07;16.15;;;2.28;;
28523;SDS011;15734;50.904;6.922;2023-07-30T08:29:32;11.02;;;2.50;;
28523;SDS011;15734;50.904;6.922;2023-07-30T08:31:58;10.35;;;3.00;;
28523;SDS011;15734;50.904;6.922;2023-07-30T08:34:23;16.92;;;2.90;;
28523;SDS011;15734;50.904;6.922;2023-07-30T08:36:49;14.80;;;2.90;;
28523;SDS011;15734;50.904;6.922;2023-07-30T08:39:14;17.45;;;2.65;;
28523;SDS011;15734;50.904;6.922;2023-07-30T08:41:40;10.45;;;2.38;;
28523;SDS011;15734;50.904;6.922;2023-07-30T08:44:06;11.70;;;2.60;;
28523;SDS011;15734;50.904;6.922;2023-07-30T08:46:31;10.88;;;2.85;;
28523;SDS011;15734;50.904;6.922;2023-07-30T08:48:57;17.58;;;2.80;;
28523;SDS011;15734;50.904;6.922;2023-07-30T08:51:22;10.30;;;3.15;;
28523;SDS011;15734;50.904;6.922;2023-07-30T08:53:50;22.33;;;3.13;;
28523;SDS011;15734;50.904;6.922;2023-07-30T08:56:16;11.68;;;2.85;;
28523;SDS011;15734;50.904;6.922;2023-07-30T08:58:43;16.02;;;2.78;;
28523;SDS011;15734;50.904;6.922;2023-07-30T09:01:10;15.57;;;2.75;;
28523;SDS011;15734;50.904;6.922;2023-07-30T09:03:38;11.70;;;2.78;;
28523;SDS011;15734;50.904;6.922;2023-07-30T09:06:04;11.88;;;2.85;;
28523;SDS011;15734;50.904;6.922;2023-07-30T09:08:30;19.52;;;2.08;;
28523;SDS011;15734;50.904;6.922;2023-07-30T09:10:57;12.35;;;2.33;;
28523;SDS011;15734;50.904;6.922;2023-07-30T09:13:31;7.22;;;2.22;;
28523;SDS011;15734;50.904;6.922;2023-07-30T09:16:11;14.35;;;2.22;;
28523;SDS011;15734;50.904;6.922;2023-07-30T09:18:41;12.07;;;2.50;;
28523;SDS011;15734;50.904;6.922;2023-07-30T09:21:07;10.68;;;2.17;;
28523;SDS011;15734;50.904;6.922;2023-07-30T09:23:38;21.60;;;3.75;;
28523;SDS011;15734;50.904;6.922;2023-07-30T09:26:05;13.55;;;1.80;;
28523;SDS011;15734;50.904;6.922;2023-07-30T09:28:31;8.18;;;1.90;;
28523;SDS011;15734;50.904;6.922;2023-07-30T09:31:00;9.75;;;2.05;;
28523;SDS011;15734;50.904;6.922;2023-07-30T09:33:26;11.25;;;1.67;;
28523;SDS011;15734;50.904;6.922;2023-07-30T09:35:52;10.73;;;2.17;;
28523;SDS011;15734;50.904;6.922;2023-07-30T09:38:18;12.80;;;1.92;;
28523;SDS011;15734;50.904;6.922;2023-07-30T09:40:45;8.25;;;2.45;;
28523;SDS011;15734;50.904;6.922;2023-07-30T09:43:14;8.25;;;1.90;;
28523;SDS011;15734;50.904;6.922;2023-07-30T09:45:40;15.63;;;2.42;;
28523;SDS011;15734;50.904;6.922;2023-07-30T09:48:09;14.30;;;2.03;;
28523;SDS011;15734;50.904;6.922;2023-07-30T09:50:35;16.23;;;2.95;;
28523;SDS011;15734;50.904;6.922;2023-07-30T09:53:02;10.25;;;1.77;;
28523;SDS011;15734;50.904;6.922;2023-07-30T09:55:29;11.88;;;2.53;;
28523;SDS011;15734;50.904;6.922;2023-07-30T09:57:54;10.60;;;1.80;;
28523;SDS011;15734;50.904;6.922;2023-07-30T10:00:20;10.63;;;2.03;;
28523;SDS011;15734;50.904;6.922;2023-07-30T10:02:46;9.10;;;1.70;;
28523;SDS011;15734;50.904;6.922;2023-07-30T10:05:17;8.27;;;1.73;;
28523;SDS011;15734;50.904;6.922;2023-07-30T10:07:47;11.63;;;2.22;;
28523;SDS011;15734;50.904;6.922;2023-07-30T10:10:17;8.98;;;1.60;;
28523;SDS011;15734;50.904;6.922;2023-07-30T10:12:44;13.43;;;2.38;;
28523;SDS011;15734;50.904;6.922;2023-07-30T10:15:11;9.73;;;2.28;;
28523;SDS011;15734;50.904;6.922;2023-07-30T10:17:37;10.05;;;1.65;;
28523;SDS011;15734;50.904;6.922;2023-07-30T10:20:17;14.45;;;2.05;;
28523;SDS011;15734;50.904;6.922;2023-07-30T10:22:45;5.82;;;1.88;;
28523;SDS011;15734;50.904;6.922;2023-07-30T10:25:11;9.80;;;2.13;;
28523;SDS011;15734;50.904;6.922;2023-07-30T10:27:38;7.80;;;2.00;;
28523;SDS011;15734;50.904;6.922;2023-07-30T10:30:12;7.10;;;1.55;;
28523;SDS011;15734;50.904;6.922;2023-07-30T10:32:42;11.10;;;2.30;;
28523;SDS011;15734;50.904;6.922;2023-07-30T10:35:35;12.38;;;2.45;;
28523;SDS011;15734;50.904;6.922;2023-07-30T10:38:14;9.95;;;1.67;;
28523;SDS011;15734;50.904;6.922;2023-07-30T10:43:42;10.43;;;1.98;;
28523;SDS011;15734;50.904;6.922;2023-07-30T10:46:11;11.38;;;1.77;;
28523;SDS011;15734;50.904;6.922;2023-07-30T10:48:38;7.40;;;1.70;;
28523;SDS011;15734;50.904;6.922;2023-07-30T10:51:06;14.25;;;1.88;;
28523;SDS011;15734;50.904;6.922;2023-07-30T10:53:33;7.18;;;1.40;;
28523;SDS011;15734;50.904;6.922;2023-07-30T10:56:00;5.07;;;1.30;;
28523;SDS011;15734;50.904;6.922;2023-07-30T10:58:29;9.02;;;2.15;;
28523;SDS011;15734;50.904;6.922;2023-07-30T11:00:55;8.95;;;1.48;;
28523;SDS011;15734;50.904;6.922;2023-07-30T11:03:23;5.78;;;1.58;;
28523;SDS011;15734;50.904;6.922;2023-07-30T11:05:53;6.13;;;1.73;;
28523;SDS011;15734;50.904;6.922;2023-07-30T11:08:19;6.97;;;1.60;;
28523;SDS011;15734;50.904;6.922;2023-07-30T11:10:46;12.88;;;1.67;;
28523;SDS011;15734;50.904;6.922;2023-07-30T11:13:15;6.40;;;1.85;;
28523;SDS011;15734;50.904;6.922;2023-07-30T11:15:44;10.48;;;1.63;;
28523;SDS011;15734;50.904;6.922;2023-07-30T11:18:13;10.95;;;1.65;;
28523;SDS011;15734;50.904;6.922;2023-07-30T11:20:39;6.70;;;1.33;;
28523;SDS011;15734;50.904;6.922;2023-07-30T11:23:18;4.03;;;1.05;;
28523;SDS011;15734;50.904;6.922;2023-07-30T11:25:47;5.38;;;1.27;;
28523;SDS011;15734;50.904;6.922;2023-07-30T11:30:55;8.32;;;1.10;;
28523;SDS011;15734;50.904;6.922;2023-07-30T11:33:25;5.85;;;1.45;;
28523;SDS011;15734;50.904;6.922;2023-07-30T11:35:51;2.60;;;0.95;;
28523;SDS011;15734;50.904;6.922;2023-07-30T11:38:18;5.32;;;1.27;;
28523;SDS011;15734;50.904;6.922;2023-07-30T11:40:45;5.30;;;1.50;;
28523;SDS011;15734;50.904;6.922;2023-07-30T11:43:11;8.68;;;1.17;;
28523;SDS011;15734;50.904;6.922;2023-07-30T11:45:37;8.35;;;1.27;;
28523;SDS011;15734;50.904;6.922;2023-07-30T11:48:06;7.20;;;1.05;;
28523;SDS011;15734;50.904;6.922;2023-07-30T11:53:13;8.95;;;1.40;;
28523;SDS011;15734;50.904;6.922;2023-07-30T11:55:39;5.75;;;1.10;;
28523;SDS011;15734;50.904;6.922;2023-07-30T11:58:06;12.43;;;1.13;;
28523;SDS011;15734;50.904;6.922;2023-07-30T12:00:32;6.72;;;1.10;;
28523;SDS011;15734;50.904;6.922;2023-07-30T12:03:06;4.60;;;1.52;;
28523;SDS011;15734;50.904;6.922;2023-07-30T12:05:34;5.75;;;1.35;;
28523;SDS011;15734;50.904;6.922;2023-07-30T12:08:01;11.10;;;1.85;;
28523;SDS011;15734;50.904;6.922;2023-07-30T12:10:40;6.03;;;1.40;;
28523;SDS011;15734;50.904;6.922;2023-07-30T12:13:16;6.88;;;1.35;;
28523;SDS011;15734;50.904;6.922;2023-07-30T12:15:43;8.38;;;1.45;;
28523;SDS011;15734;50.904;6.922;2023-07-30T12:18:19;6.38;;;1.33;;
28523;SDS011;15734;50.904;6.922;2023-07-30T12:20:45;11.00;;;1.50;;
28523;SDS011;15734;50.904;6.922;2023-07-30T12:23:11;9.45;;;1.58;;
28523;SDS011;15734;50.904;6.922;2023-07-30T12:25:37;5.43;;;1.23;;
28523;SDS011;15734;50.904;6.922;2023-07-30T12:28:03;4.25;;;1.02;;
28523;SDS011;15734;50.904;6.922;2023-07-30T12:30:29;6.50;;;1.20;;
28523;SDS011;15734;50.904;6.922;2023-07-30T12:32:55;9.35;;;1.40;;
28523;SDS011;15734;50.904;6.922;2023-07-30T12:35:21;6.22;;;1.20;;
28523;SDS011;15734;50.904;6.922;2023-07-30T12:37:46;4.30;;;1.50;;
28523;SDS011;15734;50.904;6.922;2023-07-30T12:40:12;13.57;;;1.73;;
28523;SDS011;15734;50.904;6.922;2023-07-30T12:42:38;5.50;;;1.67;;
28523;SDS011;15734;50.904;6.922;2023-07-30T12:45:03;6.78;;;1.33;;
28523;SDS011;15734;50.904;6.922;2023-07-30T12:47:29;7.28;;;1.38;;
28523;SDS011;15734;50.904;6.922;2023-07-30T12:49:55;5.45;;;1.17;;
28523;SDS011;15734;50.904;6.922;2023-07-30T12:52:20;4.95;;;1.52;;
28523;SDS011;15734;50.904;6.922;2023-07-30T12:54:46;5.32;;;1.38;;
28523;SDS011;15734;50.904;6.922;2023-07-30T12:57:11;8.48;;;1.80;;
28523;SDS011;15734;50.904;6.922;2023-07-30T12:59:37;14.25;;;1.42;;
28523;SDS011;15734;50.904;6.922;2023-07-30T13:02:03;11.65;;;1.58;;
28523;SDS011;15734;50.904;6.922;2023-07-30T13:04:29;5.18;;;1.90;;
28523;SDS011;15734;50.904;6.922;2023-07-30T13:06:55;5.95;;;1.38;;
28523;SDS011;15734;50.904;6.922;2023-07-30T13:09:20;5.95;;;1.58;;
28523;SDS011;15734;50.904;6.922;2023-07-30T13:11:46;11.57;;;1.63;;
28523;SDS011;15734;50.904;6.922;2023-07-30T13:14:12;15.60;;;1.48;;
28523;SDS011;15734;50.904;6.922;2023-07-30T13:16:37;6.10;;;1.40;;
28523;SDS011;15734;50.904;6.922;2023-07-30T13:19:03;7.45;;;1.83;;
28523;SDS011;15734;50.904;6.922;2023-07-30T13:21:28;8.52;;;2.05;;
28523;SDS011;15734;50.904;6.922;2023-07-30T13:23:54;6.55;;;1.85;;
28523;SDS011;15734;50.904;6.922;2023-07-30T13:26:21;7.53;;;1.52;;
28523;SDS011;15734;50.904;6.922;2023-07-30T13:28:46;5.93;;;1.30;;
28523;SDS011;15734;50.904;6.922;2023-07-30T13:31:12;4.78;;;1.45;;
28523;SDS011;15734;50.904;6.922;2023-07-30T13:33:37;7.95;;;2.00;;
28523;SDS011;15734;50.904;6.922;2023-07-30T13:36:03;8.98;;;1.67;;
28523;SDS011;15734;50.904;6.922;2023-07-30T13:38:30;7.43;;;1.42;;
28523;SDS011;15734;50.904;6.922;2023-07-30T13:40:56;8.63;;;1.63;;
28523;SDS011;15734;50.904;6.922;2023-07-30T13:43:22;4.85;;;1.20;;
28523;SDS011;15734;50.904;6.922;2023-07-30T13:45:47;9.35;;;2.00;;
28523;SDS011;15734;50.904;6.922;2023-07-30T13:48:17;6.70;;;1.42;;
28523;SDS011;15734;50.904;6.922;2023-07-30T13:50:42;12.90;;;1.85;;
28523;SDS011;15734;50.904;6.922;2023-07-30T13:53:08;7.30;;;1.60;;
28523;SDS011;15734;50.904;6.922;2023-07-30T13:55:33;5.25;;;1.30;;
28523;SDS011;15734;50.904;6.922;2023-07-30T13:57:59;5.50;;;1.27;;
28523;SDS011;15734;50.904;6.922;2023-07-30T14:00:24;8.23;;;1.35;;
28523;SDS011;15734;50.904;6.922;2023-07-30T14:02:50;8.73;;;1.33;;
28523;SDS011;15734;50.904;6.922;2023-07-30T14:05:16;6.70;;;1.20;;
28523;SDS011;15734;50.904;6.922;2023-07-30T14:07:41;11.90;;;1.23;;
28523;SDS011;15734;50.904;6.922;2023-07-30T14:10:07;5.57;;;1.30;;
28523;SDS011;15734;50.904;6.922;2023-07-30T14:12:34;4.60;;;1.05;;
28523;SDS011;15734;50.904;6.922;2023-07-30T14:14:59;13.88;;;1.40;;
28523;SDS011;15734;50.904;6.922;2023-07-30T14:17:25;5.90;;;1.08;;
28523;SDS011;15734;50.904;6.922;2023-07-30T14:19:50;5.70;;;1.33;;
28523;SDS011;15734;50.904;6.922;2023-07-30T14:22:16;8.20;;;1.60;;
28523;SDS011;15734;50.904;6.922;2023-07-30T14:24:41;17.40;;;1.50;;
28523;SDS011;15734;50.904;6.922;2023-07-30T14:27:08;7.07;;;1.20;;
28523;SDS011;15734;50.904;6.922;2023-07-30T14:29:34;5.95;;;1.50;;
28523;SDS011;15734;50.904;6.922;2023-07-30T14:31:59;8.60;;;1.45;;
28523;SDS011;15734;50.904;6.922;2023-07-30T14:34:25;5.10;;;1.40;;
28523;SDS011;15734;50.904;6.922;2023-07-30T14:36:51;7.68;;;1.60;;
28523;SDS011;15734;50.904;6.922;2023-07-30T14:39:16;5.30;;;1.48;;
28523;SDS011;15734;50.904;6.922;2023-07-30T14:41:42;7.75;;;1.40;;
28523;SDS011;15734;50.904;6.922;2023-07-30T14:44:07;6.85;;;1.27;;
28523;SDS011;15734;50.904;6.922;2023-07-30T14:46:33;5.78;;;1.27;;